sensor_id;sensor_type;location;lat;lon;timestamp;temperature;humidity
56184;DHT22;42086;53.170;6.980;2022-10-31T00:00:42;13.10;99.90
56184;DHT22;42086;53.170;6.980;2022-10-31T00:03:08;13.10;99.90
56184;DHT22;42086;53.170;6.980;2022-10-31T00:05:34;13.00;99.90
56184;DHT22;42086;53.170;6.980;2022-10-31T00:07:59;13.00;99.90
56184;DHT22;42086;53.170;6.980;2022-10-31T00:10:25;13.00;99.90
56184;DHT22;42086;53.170;6.980;2022-10-31T00:12:51;13.00;99.90
56184;DHT22;42086;53.170;6.980;2022-10-31T00:15:17;12.90;99.90
56184;DHT22;42086;53.170;6.980;2022-10-31T00:17:42;13.00;99.90
56184;DHT22;42086;53.170;6.980;2022-10-31T00:20:08;12.90;99.90
56184;DHT22;42086;53.170;6.980;2022-10-31T00:22:34;12.90;99.90
56184;DHT22;42086;53.170;6.980;2022-10-31T00:25:00;12.90;99.90
56184;DHT22;42086;53.170;6.980;2022-10-31T00:27:26;12.90;99.90
56184;DHT22;42086;53.170;6.980;2022-10-31T00:29:51;12.90;99.90
56184;DHT22;42086;53.170;6.980;2022-10-31T00:32:17;13.00;99.90
56184;DHT22;42086;53.170;6.980;2022-10-31T00:34:43;12.90;99.90
56184;DHT22;42086;53.170;6.980;2022-10-31T00:37:08;12.90;99.90
56184;DHT22;42086;53.170;6.980;2022-10-31T00:39:34;13.00;99.90
56184;DHT22;42086;53.170;6.980;2022-10-31T00:41:59;12.90;99.90
56184;DHT22;42086;53.170;6.980;2022-10-31T00:44:25;12.90;99.90
56184;DHT22;42086;53.170;6.980;2022-10-31T00:46:51;12.90;99.90
56184;DHT22;42086;53.170;6.980;2022-10-31T00:49:16;12.90;99.90
56184;DHT22;42086;53.170;6.980;2022-10-31T00:51:42;12.80;99.90
56184;DHT22;42086;53.170;6.980;2022-10-31T00:54:08;12.80;99.90
56184;DHT22;42086;53.170;6.980;2022-10-31T00:56:33;12.80;99.90
56184;DHT22;42086;53.170;6.980;2022-10-31T00:58:59;12.80;99.90
56184;DHT22;42086;53.170;6.980;2022-10-31T01:01:25;12.80;99.90
56184;DHT22;42086;53.170;6.980;2022-10-31T01:03:51;12.70;99.90
56184;DHT22;42086;53.170;6.980;2022-10-31T01:06:16;12.70;99.90
56184;DHT22;42086;53.170;6.980;2022-10-31T01:08:42;12.70;99.90
56184;DHT22;42086;53.170;6.980;2022-10-31T01:11:17;12.70;99.90
56184;DHT22;42086;53.170;6.980;2022-10-31T01:13:43;12.70;99.90
56184;DHT22;42086;53.170;6.980;2022-10-31T01:16:15;12.70;99.90
56184;DHT22;42086;53.170;6.980;2022-10-31T01:18:41;12.60;99.90
56184;DHT22;42086;53.170;6.980;2022-10-31T01:21:13;12.60;99.90
56184;DHT22;42086;53.170;6.980;2022-10-31T01:23:39;12.60;99.90
56184;DHT22;42086;53.170;6.980;2022-10-31T01:26:14;12.50;99.90
56184;DHT22;42086;53.170;6.980;2022-10-31T01:29:01;12.40;99.90
56184;DHT22;42086;53.170;6.980;2022-10-31T01:31:31;12.40;99.90
56184;DHT22;42086;53.170;6.980;2022-10-31T01:33:58;12.40;99.90
56184;DHT22;42086;53.170;6.980;2022-10-31T01:36:30;12.30;99.90
56184;DHT22;42086;53.170;6.980;2022-10-31T01:39:00;12.30;99.90
56184;DHT22;42086;53.170;6.980;2022-10-31T01:41:29;12.30;99.90
56184;DHT22;42086;53.170;6.980;2022-10-31T01:43:58;12.30;99.90
56184;DHT22;42086;53.170;6.980;2022-10-31T01:46:34;12.20;99.90
56184;DHT22;42086;53.170;6.980;2022-10-31T01:49:05;12.20;99.90
56184;DHT22;42086;53.170;6.980;2022-10-31T01:51:34;12.20;99.90
56184;DHT22;42086;53.170;6.980;2022-10-31T01:54:05;12.20;99.90
56184;DHT22;42086;53.170;6.980;2022-10-31T01:56:34;12.30;99.90
56184;DHT22;42086;53.170;6.980;2022-10-31T01:59:05;12.30;99.90
56184;DHT22;42086;53.170;6.980;2022-10-31T02:01:32;12.20;99.90
56184;DHT22;42086;53.170;6.980;2022-10-31T02:03:58;12.30;99.90
56184;DHT22;42086;53.170;6.980;2022-10-31T02:06:37;12.30;99.90
56184;DHT22;42086;53.170;6.980;2022-10-31T02:09:05;12.30;99.90
56184;DHT22;42086;53.170;6.980;2022-10-31T02:11:32;12.30;99.90
56184;DHT22;42086;53.170;6.980;2022-10-31T02:14:01;12.20;99.90
56184;DHT22;42086;53.170;6.980;2022-10-31T02:16:27;12.10;99.90
56184;DHT22;42086;53.170;6.980;2022-10-31T02:18:53;12.10;99.90
56184;DHT22;42086;53.170;6.980;2022-10-31T02:21:40;12.00;99.90
56184;DHT22;42086;53.170;6.980;2022-10-31T02:32:56;11.80;99.90
56184;DHT22;42086;53.170;6.980;2022-10-31T02:40:26;11.70;99.90
56184;DHT22;42086;53.170;6.980;2022-10-31T02:45:44;11.70;99.90
56184;DHT22;42086;53.170;6.980;2022-10-31T02:48:19;11.70;99.90
56184;DHT22;42086;53.170;6.980;2022-10-31T02:50:52;11.60;99.90
56184;DHT22;42086;53.170;6.980;2022-10-31T02:53:19;11.60;99.90
56184;DHT22;42086;53.170;6.980;2022-10-31T02:55:59;11.60;99.90
56184;DHT22;42086;53.170;6.980;2022-10-31T02:58:27;11.60;99.90
56184;DHT22;42086;53.170;6.980;2022-10-31T03:15:13;11.40;99.90
56184;DHT22;42086;53.170;6.980;2022-10-31T03:20:18;11.40;99.90
56184;DHT22;42086;53.170;6.980;2022-10-31T03:22:46;11.30;99.90
56184;DHT22;42086;53.170;6.980;2022-10-31T03:25:13;11.30;99.90
56184;DHT22;42086;53.170;6.980;2022-10-31T03:27:41;11.30;99.90
56184;DHT22;42086;53.170;6.980;2022-10-31T03:30:08;11.30;99.90
56184;DHT22;42086;53.170;6.980;2022-10-31T03:32:54;11.20;99.90
56184;DHT22;42086;53.170;6.980;2022-10-31T03:35:23;11.20;99.90
56184;DHT22;42086;53.170;6.980;2022-10-31T03:37:51;11.20;99.90
56184;DHT22;42086;53.170;6.980;2022-10-31T03:40:21;11.20;99.90
56184;DHT22;42086;53.170;6.980;2022-10-31T03:43:01;11.10;99.90
56184;DHT22;42086;53.170;6.980;2022-10-31T03:45:30;11.00;99.90
56184;DHT22;42086;53.170;6.980;2022-10-31T03:47:58;10.90;99.90
56184;DHT22;42086;53.170;6.980;2022-10-31T03:50:27;10.90;99.90
56184;DHT22;42086;53.170;6.980;2022-10-31T03:53:06;10.80;99.90
56184;DHT22;42086;53.170;6.980;2022-10-31T03:55:56;10.80;99.90
56184;DHT22;42086;53.170;6.980;2022-10-31T03:58:29;10.70;99.90
56184;DHT22;42086;53.170;6.980;2022-10-31T04:01:00;10.60;99.90
56184;DHT22;42086;53.170;6.980;2022-10-31T04:03:30;10.70;99.90
56184;DHT22;42086;53.170;6.980;2022-10-31T04:05:59;10.70;99.90
56184;DHT22;42086;53.170;6.980;2022-10-31T04:08:30;10.70;99.90
56184;DHT22;42086;53.170;6.980;2022-10-31T04:10:57;10.60;99.90
56184;DHT22;42086;53.170;6.980;2022-10-31T04:13:28;10.60;99.90
56184;DHT22;42086;53.170;6.980;2022-10-31T04:15:55;10.60;99.90
56184;DHT22;42086;53.170;6.980;2022-10-31T04:18:25;10.70;99.90
56184;DHT22;42086;53.170;6.980;2022-10-31T04:21:00;10.70;99.90
56184;DHT22;42086;53.170;6.980;2022-10-31T04:23:27;10.60;99.90
56184;DHT22;42086;53.170;6.980;2022-10-31T04:25:53;10.60;99.90
56184;DHT22;42086;53.170;6.980;2022-10-31T04:28:19;10.60;99.90
56184;DHT22;42086;53.170;6.980;2022-10-31T04:30:44;10.50;99.90
56184;DHT22;42086;53.170;6.980;2022-10-31T04:33:10;10.40;99.90
56184;DHT22;42086;53.170;6.980;2022-10-31T04:35:36;10.40;99.90
56184;DHT22;42086;53.170;6.980;2022-10-31T04:38:01;10.30;99.90
56184;DHT22;42086;53.170;6.980;2022-10-31T04:40:27;10.30;99.90
56184;DHT22;42086;53.170;6.980;2022-10-31T04:42:53;10.40;99.90
56184;DHT22;42086;53.170;6.980;2022-10-31T04:45:19;10.30;99.90
56184;DHT22;42086;53.170;6.980;2022-10-31T04:47:45;10.40;99.90
56184;DHT22;42086;53.170;6.980;2022-10-31T04:50:11;10.40;99.90
56184;DHT22;42086;53.170;6.980;2022-10-31T04:52:41;10.40;99.90
56184;DHT22;42086;53.170;6.980;2022-10-31T04:55:07;10.30;99.90
56184;DHT22;42086;53.170;6.980;2022-10-31T04:57:43;10.30;99.90
56184;DHT22;42086;53.170;6.980;2022-10-31T05:00:10;10.30;99.90
56184;DHT22;42086;53.170;6.980;2022-10-31T05:02:50;10.10;99.90
56184;DHT22;42086;53.170;6.980;2022-10-31T05:05:17;10.10;99.90
56184;DHT22;42086;53.170;6.980;2022-10-31T05:07:45;10.00;99.90
56184;DHT22;42086;53.170;6.980;2022-10-31T05:10:13;9.90;99.90
56184;DHT22;42086;53.170;6.980;2022-10-31T05:12:49;9.90;99.90
56184;DHT22;42086;53.170;6.980;2022-10-31T05:15:16;9.90;99.90
56184;DHT22;42086;53.170;6.980;2022-10-31T05:17:42;9.80;99.90
56184;DHT22;42086;53.170;6.980;2022-10-31T05:20:09;10.00;99.90
56184;DHT22;42086;53.170;6.980;2022-10-31T05:22:34;9.90;99.90
56184;DHT22;42086;53.170;6.980;2022-10-31T05:25:00;9.90;99.90
56184;DHT22;42086;53.170;6.980;2022-10-31T05:27:26;9.90;99.90
56184;DHT22;42086;53.170;6.980;2022-10-31T05:29:52;9.90;99.90
56184;DHT22;42086;53.170;6.980;2022-10-31T05:32:17;9.80;99.90
56184;DHT22;42086;53.170;6.980;2022-10-31T05:34:43;9.80;99.90
56184;DHT22;42086;53.170;6.980;2022-10-31T05:37:09;9.80;99.90
56184;DHT22;42086;53.170;6.980;2022-10-31T05:39:34;9.80;99.90
56184;DHT22;42086;53.170;6.980;2022-10-31T05:42:00;10.00;99.90
56184;DHT22;42086;53.170;6.980;2022-10-31T05:44:26;10.00;99.90
56184;DHT22;42086;53.170;6.980;2022-10-31T05:46:51;10.10;99.90
56184;DHT22;42086;53.170;6.980;2022-10-31T05:49:17;10.20;99.90
56184;DHT22;42086;53.170;6.980;2022-10-31T05:51:43;10.10;99.90
56184;DHT22;42086;53.170;6.980;2022-10-31T05:54:09;10.20;99.90
56184;DHT22;42086;53.170;6.980;2022-10-31T05:56:34;10.20;99.90
56184;DHT22;42086;53.170;6.980;2022-10-31T05:59:00;10.20;99.90
56184;DHT22;42086;53.170;6.980;2022-10-31T06:01:26;10.20;99.90
56184;DHT22;42086;53.170;6.980;2022-10-31T06:03:51;10.50;99.90
56184;DHT22;42086;53.170;6.980;2022-10-31T06:06:17;10.10;99.90
56184;DHT22;42086;53.170;6.980;2022-10-31T06:08:43;10.10;99.90
56184;DHT22;42086;53.170;6.980;2022-10-31T06:11:08;10.10;99.90
56184;DHT22;42086;53.170;6.980;2022-10-31T06:13:34;10.00;99.90
56184;DHT22;42086;53.170;6.980;2022-10-31T06:16:00;10.00;99.90
56184;DHT22;42086;53.170;6.980;2022-10-31T06:18:25;10.00;99.90
56184;DHT22;42086;53.170;6.980;2022-10-31T06:20:51;9.90;99.90
56184;DHT22;42086;53.170;6.980;2022-10-31T06:23:17;9.90;99.90
56184;DHT22;42086;53.170;6.980;2022-10-31T06:25:42;9.90;99.90
56184;DHT22;42086;53.170;6.980;2022-10-31T06:28:08;9.90;99.90
56184;DHT22;42086;53.170;6.980;2022-10-31T06:30:34;9.90;99.90
56184;DHT22;42086;53.170;6.980;2022-10-31T06:33:04;9.90;99.90
56184;DHT22;42086;53.170;6.980;2022-10-31T06:35:30;9.80;99.90
56184;DHT22;42086;53.170;6.980;2022-10-31T06:37:56;9.90;99.90
56184;DHT22;42086;53.170;6.980;2022-10-31T06:40:22;9.90;99.90
56184;DHT22;42086;53.170;6.980;2022-10-31T06:42:58;9.90;99.90
56184;DHT22;42086;53.170;6.980;2022-10-31T06:45:25;9.80;99.90
56184;DHT22;42086;53.170;6.980;2022-10-31T06:47:55;9.70;99.90
56184;DHT22;42086;53.170;6.980;2022-10-31T06:50:22;9.70;99.90
56184;DHT22;42086;53.170;6.980;2022-10-31T06:52:55;9.70;99.90
56184;DHT22;42086;53.170;6.980;2022-10-31T06:55:22;9.80;99.90
56184;DHT22;42086;53.170;6.980;2022-10-31T06:57:52;9.90;99.90
56184;DHT22;42086;53.170;6.980;2022-10-31T07:00:19;10.00;99.90
56184;DHT22;42086;53.170;6.980;2022-10-31T07:03:02;10.10;99.90
56184;DHT22;42086;53.170;6.980;2022-10-31T07:05:29;10.20;99.90
56184;DHT22;42086;53.170;6.980;2022-10-31T07:08:00;10.50;99.90
56184;DHT22;42086;53.170;6.980;2022-10-31T07:13:44;10.40;99.90
56184;DHT22;42086;53.170;6.980;2022-10-31T07:16:10;10.50;99.90
56184;DHT22;42086;53.170;6.980;2022-10-31T07:18:38;10.50;99.90
56184;DHT22;42086;53.170;6.980;2022-10-31T07:21:04;10.60;99.90
56184;DHT22;42086;53.170;6.980;2022-10-31T07:23:30;10.50;99.90
56184;DHT22;42086;53.170;6.980;2022-10-31T07:25:56;10.50;99.90
56184;DHT22;42086;53.170;6.980;2022-10-31T07:28:23;10.40;99.90
56184;DHT22;42086;53.170;6.980;2022-10-31T07:30:57;10.40;99.90
56184;DHT22;42086;53.170;6.980;2022-10-31T07:33:23;10.50;99.90
56184;DHT22;42086;53.170;6.980;2022-10-31T07:35:51;10.50;99.90
56184;DHT22;42086;53.170;6.980;2022-10-31T07:38:17;10.60;99.90
56184;DHT22;42086;53.170;6.980;2022-10-31T07:40:43;10.60;99.90
56184;DHT22;42086;53.170;6.980;2022-10-31T07:43:10;10.60;99.90
56184;DHT22;42086;53.170;6.980;2022-10-31T07:45:36;10.70;99.90
56184;DHT22;42086;53.170;6.980;2022-10-31T07:48:02;10.80;99.90
56184;DHT22;42086;53.170;6.980;2022-10-31T07:50:30;10.80;99.90
56184;DHT22;42086;53.170;6.980;2022-10-31T07:53:00;10.90;99.90
56184;DHT22;42086;53.170;6.980;2022-10-31T07:55:27;11.00;99.90
56184;DHT22;42086;53.170;6.980;2022-10-31T07:58:00;11.10;99.90
56184;DHT22;42086;53.170;6.980;2022-10-31T08:00:27;11.10;99.90
56184;DHT22;42086;53.170;6.980;2022-10-31T08:02:57;11.20;99.90
56184;DHT22;42086;53.170;6.980;2022-10-31T08:05:23;11.40;99.90
56184;DHT22;42086;53.170;6.980;2022-10-31T08:07:49;11.50;99.90
56184;DHT22;42086;53.170;6.980;2022-10-31T08:10:15;11.60;99.90
56184;DHT22;42086;53.170;6.980;2022-10-31T08:12:40;11.80;99.90
56184;DHT22;42086;53.170;6.980;2022-10-31T08:15:07;11.80;99.90
56184;DHT22;42086;53.170;6.980;2022-10-31T08:17:35;11.90;99.90
56184;DHT22;42086;53.170;6.980;2022-10-31T08:20:03;12.00;99.90
56184;DHT22;42086;53.170;6.980;2022-10-31T08:22:29;12.00;99.90
56184;DHT22;42086;53.170;6.980;2022-10-31T08:24:55;12.10;99.90
56184;DHT22;42086;53.170;6.980;2022-10-31T08:27:20;12.10;99.90
56184;DHT22;42086;53.170;6.980;2022-10-31T08:29:46;12.00;99.90
56184;DHT22;42086;53.170;6.980;2022-10-31T08:32:12;12.00;99.90
56184;DHT22;42086;53.170;6.980;2022-10-31T08:34:38;12.10;99.90
56184;DHT22;42086;53.170;6.980;2022-10-31T08:37:04;12.20;99.90
56184;DHT22;42086;53.170;6.980;2022-10-31T08:39:29;12.30;99.90
56184;DHT22;42086;53.170;6.980;2022-10-31T08:41:55;12.50;99.90
56184;DHT22;42086;53.170;6.980;2022-10-31T08:44:21;12.60;99.90
56184;DHT22;42086;53.170;6.980;2022-10-31T08:46:46;12.80;99.90
56184;DHT22;42086;53.170;6.980;2022-10-31T08:49:12;12.80;99.90
56184;DHT22;42086;53.170;6.980;2022-10-31T08:51:38;12.90;99.90
56184;DHT22;42086;53.170;6.980;2022-10-31T08:54:04;13.10;99.90
56184;DHT22;42086;53.170;6.980;2022-10-31T08:56:29;13.20;99.90
56184;DHT22;42086;53.170;6.980;2022-10-31T08:58:55;13.30;99.90
56184;DHT22;42086;53.170;6.980;2022-10-31T09:01:21;13.40;99.90
56184;DHT22;42086;53.170;6.980;2022-10-31T09:03:46;13.40;99.90
56184;DHT22;42086;53.170;6.980;2022-10-31T09:06:12;13.60;99.90
56184;DHT22;42086;53.170;6.980;2022-10-31T09:08:38;13.60;99.90
56184;DHT22;42086;53.170;6.980;2022-10-31T09:11:04;13.60;99.90
56184;DHT22;42086;53.170;6.980;2022-10-31T09:13:32;13.70;99.90
56184;DHT22;42086;53.170;6.980;2022-10-31T09:15:58;13.60;99.90
56184;DHT22;42086;53.170;6.980;2022-10-31T09:18:26;13.60;99.90
56184;DHT22;42086;53.170;6.980;2022-10-31T09:20:58;13.70;99.90
56184;DHT22;42086;53.170;6.980;2022-10-31T09:23:25;13.80;99.90
56184;DHT22;42086;53.170;6.980;2022-10-31T09:25:52;13.80;99.90
56184;DHT22;42086;53.170;6.980;2022-10-31T09:28:22;13.90;99.90
56184;DHT22;42086;53.170;6.980;2022-10-31T09:30:51;14.00;99.90
56184;DHT22;42086;53.170;6.980;2022-10-31T09:33:17;14.10;99.90
56184;DHT22;42086;53.170;6.980;2022-10-31T09:35:43;14.20;99.90
56184;DHT22;42086;53.170;6.980;2022-10-31T09:40:48;14.30;99.90
56184;DHT22;42086;53.170;6.980;2022-10-31T09:46:31;14.50;99.90
56184;DHT22;42086;53.170;6.980;2022-10-31T09:52:04;14.80;99.90
56184;DHT22;42086;53.170;6.980;2022-10-31T09:54:46;15.00;99.90
56184;DHT22;42086;53.170;6.980;2022-10-31T09:57:17;15.10;99.90
56184;DHT22;42086;53.170;6.980;2022-10-31T09:59:45;15.40;99.90
56184;DHT22;42086;53.170;6.980;2022-10-31T10:04:48;15.50;99.90
56184;DHT22;42086;53.170;6.980;2022-10-31T10:07:41;15.50;99.90
56184;DHT22;42086;53.170;6.980;2022-10-31T10:10:41;15.60;99.90
56184;DHT22;42086;53.170;6.980;2022-10-31T10:18:26;15.60;99.90
56184;DHT22;42086;53.170;6.980;2022-10-31T10:21:09;15.70;99.90
56184;DHT22;42086;53.170;6.980;2022-10-31T10:29:25;16.00;99.90
56184;DHT22;42086;53.170;6.980;2022-10-31T10:31:53;16.10;99.90
56184;DHT22;42086;53.170;6.980;2022-10-31T10:36:56;16.00;99.90
56184;DHT22;42086;53.170;6.980;2022-10-31T10:39:24;16.00;99.90
56184;DHT22;42086;53.170;6.980;2022-10-31T10:41:52;15.90;99.90
56184;DHT22;42086;53.170;6.980;2022-10-31T10:44:39;15.90;99.90
56184;DHT22;42086;53.170;6.980;2022-10-31T10:47:26;16.00;99.90
56184;DHT22;42086;53.170;6.980;2022-10-31T10:50:20;16.00;99.90
56184;DHT22;42086;53.170;6.980;2022-10-31T10:53:25;16.20;99.90
56184;DHT22;42086;53.170;6.980;2022-10-31T10:56:18;16.30;99.90
56184;DHT22;42086;53.170;6.980;2022-10-31T10:58:45;16.50;99.90
56184;DHT22;42086;53.170;6.980;2022-10-31T11:01:13;16.60;99.90
56184;DHT22;42086;53.170;6.980;2022-10-31T11:03:40;16.80;99.90
56184;DHT22;42086;53.170;6.980;2022-10-31T11:06:21;16.90;99.90
56184;DHT22;42086;53.170;6.980;2022-10-31T11:08:48;17.00;99.90
56184;DHT22;42086;53.170;6.980;2022-10-31T11:11:34;17.10;99.90
56184;DHT22;42086;53.170;6.980;2022-10-31T11:14:03;17.00;99.90
56184;DHT22;42086;53.170;6.980;2022-10-31T11:16:36;16.90;99.90
56184;DHT22;42086;53.170;6.980;2022-10-31T11:19:22;16.80;99.90
56184;DHT22;42086;53.170;6.980;2022-10-31T11:21:49;16.80;99.90
56184;DHT22;42086;53.170;6.980;2022-10-31T11:24:25;16.90;99.90
56184;DHT22;42086;53.170;6.980;2022-10-31T11:27:09;16.80;99.90
56184;DHT22;42086;53.170;6.980;2022-10-31T11:29:37;16.70;99.90
56184;DHT22;42086;53.170;6.980;2022-10-31T11:32:02;16.80;99.90
56184;DHT22;42086;53.170;6.980;2022-10-31T11:34:37;16.80;99.90
56184;DHT22;42086;53.170;6.980;2022-10-31T11:37:16;17.00;99.90
56184;DHT22;42086;53.170;6.980;2022-10-31T11:39:46;17.30;99.90
56184;DHT22;42086;53.170;6.980;2022-10-31T11:42:22;17.90;99.90
56184;DHT22;42086;53.170;6.980;2022-10-31T11:44:51;18.20;99.90
56184;DHT22;42086;53.170;6.980;2022-10-31T11:47:26;18.60;99.90
56184;DHT22;42086;53.170;6.980;2022-10-31T11:49:52;18.80;99.90
56184;DHT22;42086;53.170;6.980;2022-10-31T11:52:25;18.60;99.90
56184;DHT22;42086;53.170;6.980;2022-10-31T11:57:47;18.50;99.90
56184;DHT22;42086;53.170;6.980;2022-10-31T12:05:40;18.20;99.90
56184;DHT22;42086;53.170;6.980;2022-10-31T12:08:11;18.10;99.90
56184;DHT22;42086;53.170;6.980;2022-10-31T12:11:02;18.10;99.90
56184;DHT22;42086;53.170;6.980;2022-10-31T12:16:24;17.80;99.90
56184;DHT22;42086;53.170;6.980;2022-10-31T12:21:42;17.70;99.90
56184;DHT22;42086;53.170;6.980;2022-10-31T12:24:31;17.80;99.90
56184;DHT22;42086;53.170;6.980;2022-10-31T12:33:32;18.80;99.90
56184;DHT22;42086;53.170;6.980;2022-10-31T12:58:55;18.80;99.90
56184;DHT22;42086;53.170;6.980;2022-10-31T13:01:47;18.70;99.90
56184;DHT22;42086;53.170;6.980;2022-10-31T13:04:33;18.50;99.90
56184;DHT22;42086;53.170;6.980;2022-10-31T13:07:08;18.30;99.90
56184;DHT22;42086;53.170;6.980;2022-10-31T13:09:42;18.10;99.90
56184;DHT22;42086;53.170;6.980;2022-10-31T13:12:13;18.10;99.90
56184;DHT22;42086;53.170;6.980;2022-10-31T13:14:47;17.90;99.90
56184;DHT22;42086;53.170;6.980;2022-10-31T13:20:24;17.90;99.90
56184;DHT22;42086;53.170;6.980;2022-10-31T13:23:15;17.70;99.90
56184;DHT22;42086;53.170;6.980;2022-10-31T13:25:47;17.70;99.90
56184;DHT22;42086;53.170;6.980;2022-10-31T13:28:25;17.60;99.90
56184;DHT22;42086;53.170;6.980;2022-10-31T13:30:54;17.60;99.90
56184;DHT22;42086;53.170;6.980;2022-10-31T13:38:46;17.20;99.90
56184;DHT22;42086;53.170;6.980;2022-10-31T13:44:12;17.50;99.90
56184;DHT22;42086;53.170;6.980;2022-10-31T13:46:40;17.50;99.90
56184;DHT22;42086;53.170;6.980;2022-10-31T13:49:37;17.60;99.90
56184;DHT22;42086;53.170;6.980;2022-10-31T13:54:37;17.60;99.90
56184;DHT22;42086;53.170;6.980;2022-10-31T13:57:13;17.70;99.90
56184;DHT22;42086;53.170;6.980;2022-10-31T13:59:51;17.80;99.90
56184;DHT22;42086;53.170;6.980;2022-10-31T14:02:20;17.80;99.90
56184;DHT22;42086;53.170;6.980;2022-10-31T14:04:53;17.90;99.90
56184;DHT22;42086;53.170;6.980;2022-10-31T14:07:22;17.80;99.90
56184;DHT22;42086;53.170;6.980;2022-10-31T14:09:55;17.70;99.90
56184;DHT22;42086;53.170;6.980;2022-10-31T14:12:35;17.60;99.90
56184;DHT22;42086;53.170;6.980;2022-10-31T14:17:55;17.60;99.90
56184;DHT22;42086;53.170;6.980;2022-10-31T14:20:33;17.60;99.90
56184;DHT22;42086;53.170;6.980;2022-10-31T14:28:44;17.70;99.90
56184;DHT22;42086;53.170;6.980;2022-10-31T14:33:59;17.60;99.90
56184;DHT22;42086;53.170;6.980;2022-10-31T14:36:38;17.50;99.90
56184;DHT22;42086;53.170;6.980;2022-10-31T14:42:00;17.40;99.90
56184;DHT22;42086;53.170;6.980;2022-10-31T14:50:17;17.30;99.90
56184;DHT22;42086;53.170;6.980;2022-10-31T14:52:48;17.30;99.90
56184;DHT22;42086;53.170;6.980;2022-10-31T14:55:15;17.20;99.90
56184;DHT22;42086;53.170;6.980;2022-10-31T14:58:08;17.20;99.90
56184;DHT22;42086;53.170;6.980;2022-10-31T15:00:35;17.20;99.90
56184;DHT22;42086;53.170;6.980;2022-10-31T15:03:10;17.10;99.90
56184;DHT22;42086;53.170;6.980;2022-10-31T15:06:01;17.10;99.90
56184;DHT22;42086;53.170;6.980;2022-10-31T15:09:20;17.00;99.90
56184;DHT22;42086;53.170;6.980;2022-10-31T15:11:28;16.90;99.90
56184;DHT22;42086;53.170;6.980;2022-10-31T15:14:05;16.80;99.90
56184;DHT22;42086;53.170;6.980;2022-10-31T15:16:43;16.70;99.90
56184;DHT22;42086;53.170;6.980;2022-10-31T15:19:13;16.60;99.90
56184;DHT22;42086;53.170;6.980;2022-10-31T15:21:43;16.50;99.90
56184;DHT22;42086;53.170;6.980;2022-10-31T15:24:14;16.40;99.90
56184;DHT22;42086;53.170;6.980;2022-10-31T15:26:54;16.40;99.90
56184;DHT22;42086;53.170;6.980;2022-10-31T15:29:25;16.30;99.90
56184;DHT22;42086;53.170;6.980;2022-10-31T15:32:09;16.20;99.90
56184;DHT22;42086;53.170;6.980;2022-10-31T15:34:42;16.10;99.90
56184;DHT22;42086;53.170;6.980;2022-10-31T15:37:11;16.00;99.90
56184;DHT22;42086;53.170;6.980;2022-10-31T15:39:37;15.90;99.90
56184;DHT22;42086;53.170;6.980;2022-10-31T15:42:03;15.90;99.90
56184;DHT22;42086;53.170;6.980;2022-10-31T15:44:35;15.80;99.90
56184;DHT22;42086;53.170;6.980;2022-10-31T15:47:04;15.70;99.90
56184;DHT22;42086;53.170;6.980;2022-10-31T15:49:51;15.70;99.90
56184;DHT22;42086;53.170;6.980;2022-10-31T15:52:29;15.60;99.90
56184;DHT22;42086;53.170;6.980;2022-10-31T15:54:58;15.50;99.90
56184;DHT22;42086;53.170;6.980;2022-10-31T15:57:24;15.50;99.90
56184;DHT22;42086;53.170;6.980;2022-10-31T15:59:51;15.40;99.90
56184;DHT22;42086;53.170;6.980;2022-10-31T16:02:26;15.30;99.90
56184;DHT22;42086;53.170;6.980;2022-10-31T16:04:58;15.30;99.90
56184;DHT22;42086;53.170;6.980;2022-10-31T16:07:24;15.20;99.90
56184;DHT22;42086;53.170;6.980;2022-10-31T16:09:58;15.10;99.90
56184;DHT22;42086;53.170;6.980;2022-10-31T16:12:42;15.10;99.90
56184;DHT22;42086;53.170;6.980;2022-10-31T16:15:15;15.00;99.90
56184;DHT22;42086;53.170;6.980;2022-10-31T16:17:43;14.90;99.90
56184;DHT22;42086;53.170;6.980;2022-10-31T16:20:23;14.80;99.90
56184;DHT22;42086;53.170;6.980;2022-10-31T16:22:51;14.80;99.90
56184;DHT22;42086;53.170;6.980;2022-10-31T16:25:36;14.70;99.90
56184;DHT22;42086;53.170;6.980;2022-10-31T16:28:23;14.60;99.90
56184;DHT22;42086;53.170;6.980;2022-10-31T16:30:52;14.60;99.90
56184;DHT22;42086;53.170;6.980;2022-10-31T16:33:35;14.50;99.90
56184;DHT22;42086;53.170;6.980;2022-10-31T16:38:53;14.40;99.90
56184;DHT22;42086;53.170;6.980;2022-10-31T16:41:19;14.30;99.90
56184;DHT22;42086;53.170;6.980;2022-10-31T16:43:45;14.30;99.90
56184;DHT22;42086;53.170;6.980;2022-10-31T16:46:15;14.30;99.90
56184;DHT22;42086;53.170;6.980;2022-10-31T16:48:43;14.30;99.90
56184;DHT22;42086;53.170;6.980;2022-10-31T16:51:08;14.20;99.90
56184;DHT22;42086;53.170;6.980;2022-10-31T16:53:34;14.20;99.90
56184;DHT22;42086;53.170;6.980;2022-10-31T16:56:03;14.20;99.90
56184;DHT22;42086;53.170;6.980;2022-10-31T16:58:34;14.20;99.90
56184;DHT22;42086;53.170;6.980;2022-10-31T17:01:01;14.20;99.90
56184;DHT22;42086;53.170;6.980;2022-10-31T17:03:27;14.20;99.90
56184;DHT22;42086;53.170;6.980;2022-10-31T17:05:52;14.20;99.90
56184;DHT22;42086;53.170;6.980;2022-10-31T17:08:20;14.20;99.90
56184;DHT22;42086;53.170;6.980;2022-10-31T17:10:47;14.20;99.90
56184;DHT22;42086;53.170;6.980;2022-10-31T17:13:21;14.20;99.90
56184;DHT22;42086;53.170;6.980;2022-10-31T17:15:50;14.20;99.90
56184;DHT22;42086;53.170;6.980;2022-10-31T17:18:18;14.10;99.90
56184;DHT22;42086;53.170;6.980;2022-10-31T17:20:45;14.10;99.90
56184;DHT22;42086;53.170;6.980;2022-10-31T17:23:12;14.10;99.90
56184;DHT22;42086;53.170;6.980;2022-10-31T17:25:38;14.10;99.90
56184;DHT22;42086;53.170;6.980;2022-10-31T17:28:05;14.10;99.90
56184;DHT22;42086;53.170;6.980;2022-10-31T17:30:31;14.10;99.90
56184;DHT22;42086;53.170;6.980;2022-10-31T17:32:57;14.10;99.90
56184;DHT22;42086;53.170;6.980;2022-10-31T17:35:23;14.20;99.90
56184;DHT22;42086;53.170;6.980;2022-10-31T17:37:49;14.10;99.90
56184;DHT22;42086;53.170;6.980;2022-10-31T17:40:18;14.20;99.90
56184;DHT22;42086;53.170;6.980;2022-10-31T17:42:52;14.20;99.90
56184;DHT22;42086;53.170;6.980;2022-10-31T17:45:19;14.20;99.90
56184;DHT22;42086;53.170;6.980;2022-10-31T17:47:46;14.20;99.90
56184;DHT22;42086;53.170;6.980;2022-10-31T17:50:14;14.20;99.90
56184;DHT22;42086;53.170;6.980;2022-10-31T17:52:40;14.20;99.90
56184;DHT22;42086;53.170;6.980;2022-10-31T17:55:05;14.20;99.90
56184;DHT22;42086;53.170;6.980;2022-10-31T17:57:32;14.20;99.90
56184;DHT22;42086;53.170;6.980;2022-10-31T17:59:59;14.20;99.90
56184;DHT22;42086;53.170;6.980;2022-10-31T18:02:26;14.20;99.90
56184;DHT22;42086;53.170;6.980;2022-10-31T18:04:52;14.20;99.90
56184;DHT22;42086;53.170;6.980;2022-10-31T18:07:18;14.20;99.90
56184;DHT22;42086;53.170;6.980;2022-10-31T18:09:47;14.20;99.90
56184;DHT22;42086;53.170;6.980;2022-10-31T18:12:14;14.30;99.90